Time;durP1;ratioP1;P1;durP2;ratioP2;P2;SDS_P1;SDS_P2;PMS_P1;PMS_P2;Temp;Humidity;BMP_temperature;BMP_pressure;BME280_temperature;BME280_humidity;BME280_pressure;Samples;Min_cycle;Max_cycle;Signal;HPM_P1;HPM_P2
2021/07/19 00:00:24;;;;;;;5.00;3.78;;;22.00;88.40;;;;;;5047078;28;20753;-75
2021/07/19 00:02:54;;;;;;;4.80;4.40;;;22.00;88.60;;;;;;5048387;28;20192;-73
2021/07/19 00:05:20;;;;;;;3.92;3.67;;;22.00;88.60;;;;;;5053710;28;20609;-75
2021/07/19 00:07:46;;;;;;;4.18;3.92;;;22.00;88.70;;;;;;5052151;28;20568;-75
2021/07/19 00:10:14;;;;;;;4.57;4.05;;;22.00;88.80;;;;;;5042824;28;20191;-77
2021/07/19 00:12:40;;;;;;;4.30;3.90;;;21.90;88.40;;;;;;5045560;28;20684;-75
2021/07/19 00:15:10;;;;;;;5.20;4.40;;;21.90;88.50;;;;;;5045682;28;20199;-75
2021/07/19 00:17:36;;;;;;;6.15;4.35;;;22.00;88.30;;;;;;5044123;28;20194;-75
2021/07/19 00:20:02;;;;;;;4.05;3.85;;;22.00;88.50;;;;;;5045838;28;20219;-75
2021/07/19 00:22:28;;;;;;;4.47;4.07;;;22.00;88.60;;;;;;5043497;28;20171;-75
2021/07/19 00:24:54;;;;;;;4.20;4.00;;;22.00;88.40;;;;;;5044741;28;20566;-75
2021/07/19 00:27:19;;;;;;;5.28;4.32;;;21.90;88.40;;;;;;5047939;28;20176;-76
2021/07/19 00:29:45;;;;;;;5.15;4.75;;;21.90;88.30;;;;;;5048947;28;20665;-75
2021/07/19 00:32:11;;;;;;;5.10;4.57;;;21.90;88.30;;;;;;5052763;28;20172;-75
2021/07/19 00:34:36;;;;;;;4.63;4.22;;;21.90;88.50;;;;;;5046404;28;20263;-75
2021/07/19 00:37:04;;;;;;;6.18;4.63;;;21.80;88.40;;;;;;5048887;28;20638;-75
2021/07/19 00:39:29;;;;;;;4.53;4.32;;;21.80;88.40;;;;;;5047668;28;20245;-75
2021/07/19 00:41:56;;;;;;;4.22;3.90;;;21.70;88.30;;;;;;5048418;28;20179;-75
2021/07/19 00:44:22;;;;;;;4.55;4.28;;;21.70;88.30;;;;;;5045064;28;20184;-76
2021/07/19 00:46:53;;;;;;;4.47;4.22;;;21.60;88.30;;;;;;5047298;28;20183;-76
2021/07/19 00:49:21;;;;;;;4.07;3.78;;;21.60;88.30;;;;;;5044698;28;20234;-74
2021/07/19 00:51:48;;;;;;;4.95;4.53;;;21.60;88.50;;;;;;5040770;28;20179;-74
2021/07/19 00:54:17;;;;;;;4.93;4.53;;;21.50;88.60;;;;;;5048599;28;20245;-74
2021/07/19 00:56:44;;;;;;;6.28;4.25;;;21.50;88.60;;;;;;5047445;28;20198;-75
2021/07/19 00:59:13;;;;;;;4.70;4.28;;;21.50;88.70;;;;;;5048974;28;20218;-74
2021/07/19 01:01:42;;;;;;;6.15;4.75;;;21.50;88.60;;;;;;5046061;28;20627;-74
2021/07/19 01:04:10;;;;;;;4.43;4.22;;;21.40;88.80;;;;;;5041157;28;20203;-75
2021/07/19 01:06:37;;;;;;;7.13;4.32;;;21.40;89.00;;;;;;5048582;28;20179;-75
2021/07/19 01:09:05;;;;;;;5.10;4.80;;;21.40;89.30;;;;;;5048657;28;20761;-75
2021/07/19 01:11:32;;;;;;;5.28;4.75;;;21.30;89.10;;;;;;5046672;28;20191;-75
2021/07/19 01:13:58;;;;;;;7.30;4.35;;;21.30;89.40;;;;;;5048517;28;20172;-75
2021/07/19 01:16:24;;;;;;;5.68;5.13;;;21.30;89.50;;;;;;5048942;28;20198;-75
2021/07/19 01:18:50;;;;;;;5.25;4.85;;;21.20;89.60;;;;;;5046993;28;20356;-75
2021/07/19 01:21:21;;;;;;;4.97;4.72;;;21.20;89.60;;;;;;5048877;28;20807;-74
2021/07/19 01:23:50;;;;;;;5.60;4.43;;;21.20;89.30;;;;;;5047845;28;20704;-74
2021/07/19 01:27:20;;;;;;;5.07;4.70;;;21.10;89.40;;;;;;5047762;28;20269;-75
2021/07/19 01:29:47;;;;;;;4.80;4.50;;;21.10;90.70;;;;;;4985215;28;20202;-75
2021/07/19 01:32:13;;;;;;;4.70;4.25;;;21.00;89.90;;;;;;4969667;28;20189;-75
2021/07/19 01:34:40;;;;;;;5.20;4.72;;;21.00;90.00;;;;;;4985064;28;20201;-75
2021/07/19 01:37:07;;;;;;;5.32;4.85;;;21.00;90.30;;;;;;4986214;28;20205;-74
2021/07/19 01:39:35;;;;;;;5.15;4.65;;;21.00;90.30;;;;;;4984653;28;20229;-76
2021/07/19 01:42:02;;;;;;;8.13;4.90;;;20.90;90.40;;;;;;4967051;28;20283;-74
2021/07/19 01:44:29;;;;;;;4.93;4.63;;;20.90;90.50;;;;;;4980178;28;20197;-75
2021/07/19 01:46:58;;;;;;;4.72;4.53;;;20.90;90.50;;;;;;4984157;28;20198;-76
2021/07/19 01:49:24;;;;;;;6.07;4.85;;;20.80;90.60;;;;;;4985609;28;20189;-75
2021/07/19 01:51:51;;;;;;;4.50;4.22;;;20.80;90.90;;;;;;4983838;28;20186;-75
2021/07/19 01:54:19;;;;;;;6.20;4.68;;;20.80;90.60;;;;;;4984769;28;20336;-75
2021/07/19 01:56:45;;;;;;;5.22;4.63;;;20.70;90.80;;;;;;4982053;28;20218;-75
2021/07/19 01:59:12;;;;;;;5.30;4.93;;;20.70;91.00;;;;;;4984458;28;20225;-75
2021/07/19 02:01:39;;;;;;;4.70;4.28;;;20.70;90.80;;;;;;4975902;28;20814;-74
2021/07/19 02:04:06;;;;;;;5.30;4.80;;;20.70;91.10;;;;;;4984554;28;20197;-74
2021/07/19 02:06:33;;;;;;;4.80;4.40;;;20.70;91.30;;;;;;5019449;28;20192;-74
2021/07/19 02:09:03;;;;;;;5.13;4.60;;;20.70;91.20;;;;;;5047480;28;20274;-75
2021/07/19 02:11:31;;;;;;;4.80;4.60;;;20.70;91.20;;;;;;5046725;28;20191;-74
2021/07/19 02:13:59;;;;;;;4.80;4.40;;;20.60;91.20;;;;;;5045650;28;20254;-74
2021/07/19 02:16:28;;;;;;;4.70;4.40;;;20.60;91.20;;;;;;5047519;28;20206;-75
2021/07/19 02:18:54;;;;;;;4.40;4.00;;;20.60;91.40;;;;;;5045313;28;20265;-74
2021/07/19 02:21:23;;;;;;;5.15;4.65;;;20.50;91.30;;;;;;5046895;28;20229;-75
2021/07/19 02:23:50;;;;;;;4.70;4.28;;;20.50;91.30;;;;;;5045900;28;20244;-74
2021/07/19 02:26:18;;;;;;;4.93;4.63;;;20.50;91.50;;;;;;5044336;28;20244;-74
2021/07/19 02:28:45;;;;;;;5.07;4.70;;;20.40;91.80;;;;;;5046552;28;20623;-75
2021/07/19 02:31:12;;;;;;;5.13;4.80;;;20.40;91.90;;;;;;5047404;28;20183;-74
2021/07/19 02:33:39;;;;;;;4.50;4.30;;;20.30;92.00;;;;;;5043856;28;20215;-75
2021/07/19 02:36:07;;;;;;;5.18;4.82;;;20.30;92.10;;;;;;5047152;28;20180;-74
2021/07/19 02:38:34;;;;;;;5.07;4.25;;;20.30;92.00;;;;;;5046547;28;20219;-75
2021/07/19 02:41:02;;;;;;;5.63;5.20;;;20.30;92.10;;;;;;5044735;28;20199;-74
2021/07/19 02:43:28;;;;;;;4.80;4.57;;;20.20;92.20;;;;;;5044352;28;20275;-74
2021/07/19 02:45:56;;;;;;;4.75;4.40;;;20.20;92.10;;;;;;5046294;28;20252;-76
2021/07/19 02:48:29;;;;;;;7.05;4.70;;;20.20;92.20;;;;;;5047127;28;20267;-74
2021/07/19 02:50:58;;;;;;;5.03;4.63;;;20.20;92.10;;;;;;5046605;28;20198;-74
2021/07/19 02:53:30;;;;;;;4.90;4.60;;;20.20;92.10;;;;;;5046845;28;20191;-75
2021/07/19 02:55:57;;;;;;;4.93;4.55;;;20.10;92.20;;;;;;5043043;28;20240;-75
2021/07/19 02:58:23;;;;;;;5.22;4.82;;;20.10;92.30;;;;;;5051923;28;20720;-76
2021/07/19 03:00:50;;;;;;;5.15;4.55;;;20.10;92.40;;;;;;5046329;28;20183;-76
2021/07/19 03:03:37;;;;;;;4.22;3.90;;;20.10;92.50;;;;;;5045779;28;20210;-76
2021/07/19 03:06:06;;;;;;;4.65;4.30;;;20.10;92.30;;;;;;5045063;28;20557;-76
2021/07/19 03:08:41;;;;;;;5.47;5.07;;;20.10;92.30;;;;;;5046042;28;20576;-75
2021/07/19 03:11:20;;;;;;;4.65;4.32;;;20.10;91.90;;;;;;5043849;28;20182;-75
2021/07/19 03:13:54;;;;;;;4.50;4.10;;;20.10;91.90;;;;;;5046672;28;20971;-75
2021/07/19 03:16:21;;;;;;;6.13;4.75;;;20.10;91.90;;;;;;5037503;28;20248;-75
2021/07/19 03:18:48;;;;;;;5.78;4.80;;;20.10;92.40;;;;;;5045884;28;20763;-75
2021/07/19 03:21:16;;;;;;;6.40;4.85;;;20.10;92.40;;;;;;5049749;28;20184;-75
2021/07/19 03:23:44;;;;;;;6.95;4.95;;;20.10;92.30;;;;;;5060793;28;20192;-75
2021/07/19 03:26:10;;;;;;;5.18;4.78;;;20.10;92.30;;;;;;5047830;28;20607;-75
2021/07/19 03:28:37;;;;;;;10.75;5.28;;;20.00;92.40;;;;;;5049676;28;20194;-75
2021/07/19 03:31:03;;;;;;;5.10;4.72;;;20.00;92.40;;;;;;5049009;28;20191;-75
2021/07/19 03:33:29;;;;;;;4.90;4.60;;;20.00;92.30;;;;;;5049021;28;20320;-75
2021/07/19 03:35:56;;;;;;;5.35;5.05;;;20.00;92.30;;;;;;5049732;28;20199;-74
2021/07/19 03:38:23;;;;;;;5.65;5.18;;;20.00;92.30;;;;;;5050557;28;20204;-73
2021/07/19 03:40:49;;;;;;;5.60;5.20;;;20.00;92.00;;;;;;5049069;28;20203;-75
2021/07/19 03:43:15;;;;;;;5.32;5.03;;;20.10;92.00;;;;;;5049505;28;20185;-75
2021/07/19 03:45:45;;;;;;;7.45;5.75;;;20.10;92.10;;;;;;5049631;28;20674;-75
2021/07/19 03:48:11;;;;;;;8.32;6.60;;;20.10;92.80;;;;;;5044134;28;20179;-74
2021/07/19 03:50:37;;;;;;;6.88;6.28;;;20.10;94.10;;;;;;5048744;28;20646;-75
2021/07/19 03:53:03;;;;;;;9.73;6.07;;;20.10;94.20;;;;;;5050763;28;20184;-75
2021/07/19 03:55:29;;;;;;;5.93;5.50;;;20.10;94.00;;;;;;5050052;28;20965;-75
2021/07/19 03:57:55;;;;;;;6.38;5.85;;;20.10;93.90;;;;;;5050192;28;20270;-75
2021/07/19 04:00:22;;;;;;;5.25;4.93;;;20.10;93.60;;;;;;5048215;28;20222;-75
2021/07/19 04:02:52;;;;;;;11.55;7.45;;;20.20;93.60;;;;;;5047824;28;20187;-74
2021/07/19 04:05:20;;;;;;;10.05;9.13;;;20.20;93.60;;;;;;5049546;28;20213;-74
2021/07/19 04:07:49;;;;;;;9.88;7.15;;;20.30;93.30;;;;;;5048499;28;20183;-76
2021/07/19 04:10:17;;;;;;;8.35;6.45;;;20.30;93.30;;;;;;5081507;28;20191;-76
2021/07/19 04:12:50;;;;;;;6.55;6.00;;;20.30;93.40;;;;;;5048927;28;20230;-75
2021/07/19 04:15:16;;;;;;;9.85;6.45;;;20.30;92.90;;;;;;5047712;28;20688;-76
2021/07/19 04:17:44;;;;;;;8.55;6.85;;;20.30;93.50;;;;;;5047466;28;20188;-75
2021/07/19 04:20:12;;;;;;;7.55;6.70;;;20.30;93.70;;;;;;5048297;28;20207;-75
2021/07/19 04:22:38;;;;;;;8.15;6.88;;;20.30;93.50;;;;;;5049457;28;20233;-75
2021/07/19 04:25:06;;;;;;;7.28;6.78;;;20.30;93.60;;;;;;5049606;28;20218;-75
2021/07/19 04:27:37;;;;;;;8.05;6.43;;;20.30;93.50;;;;;;5048330;28;20258;-76
2021/07/19 04:30:06;;;;;;;11.88;7.05;;;20.30;93.20;;;;;;5046622;28;20226;-75
2021/07/19 04:32:32;;;;;;;7.70;6.30;;;20.30;93.60;;;;;;5047081;28;20179;-76
2021/07/19 04:34:58;;;;;;;8.43;6.68;;;20.40;93.60;;;;;;5047969;28;20243;-76
2021/07/19 04:37:23;;;;;;;6.93;6.05;;;20.40;93.50;;;;;;5049341;28;20180;-74
2021/07/19 04:39:49;;;;;;;6.28;5.78;;;20.40;93.40;;;;;;5047083;28;20207;-72
2021/07/19 04:42:15;;;;;;;13.45;7.25;;;20.50;93.10;;;;;;5046816;28;20640;-72
2021/07/19 04:44:41;;;;;;;7.80;7.00;;;20.50;93.10;;;;;;5048786;28;20191;-72
2021/07/19 04:47:07;;;;;;;10.10;6.22;;;20.60;93.00;;;;;;5048270;28;20180;-72
2021/07/19 04:49:41;;;;;;;9.45;8.15;;;20.60;92.80;;;;;;5049020;28;20971;-72
2021/07/19 04:52:08;;;;;;;7.43;6.72;;;20.70;92.20;;;;;;5048613;28;20689;-74
2021/07/19 04:54:39;;;;;;;7.30;6.60;;;20.70;92.60;;;;;;5047772;28;20184;-73
2021/07/19 04:57:09;;;;;;;9.45;8.15;;;20.80;92.20;;;;;;5047025;28;20845;-72
2021/07/19 04:59:48;;;;;;;7.68;6.88;;;20.80;92.20;;;;;;5046473;28;20642;-72
2021/07/19 05:02:16;;;;;;;6.78;6.10;;;20.90;91.70;;;;;;5045862;28;20881;-72
2021/07/19 05:04:43;;;;;;;6.35;5.80;;;20.90;91.80;;;;;;5047346;28;20660;-74
2021/07/19 05:07:12;;;;;;;12.23;6.38;;;21.00;91.60;;;;;;5045751;28;20669;-73
2021/07/19 05:09:41;;;;;;;7.82;6.53;;;21.00;91.10;;;;;;5045569;28;20199;-72
2021/07/19 05:12:20;;;;;;;6.40;5.68;;;21.10;90.40;;;;;;5048187;28;20258;-73
2021/07/19 05:14:47;;;;;;;5.68;5.32;;;21.10;90.00;;;;;;5041778;28;20195;-73
2021/07/19 05:17:14;;;;;;;6.60;6.10;;;21.20;90.40;;;;;;5046228;28;20187;-73
2021/07/19 05:19:41;;;;;;;6.32;5.35;;;21.20;90.20;;;;;;5045396;28;20770;-73
2021/07/19 05:22:16;;;;;;;11.98;6.63;;;21.30;89.70;;;;;;5080281;28;20209;-72
2021/07/19 05:24:43;;;;;;;8.57;6.03;;;21.30;89.20;;;;;;5047961;28;20179;-72
2021/07/19 05:27:10;;;;;;;9.50;6.15;;;21.40;90.10;;;;;;5048453;28;20187;-72
2021/07/19 05:29:37;;;;;;;8.30;7.05;;;21.40;89.60;;;;;;5047880;28;20257;-76
2021/07/19 05:32:04;;;;;;;7.25;6.43;;;21.50;89.50;;;;;;5049163;28;20175;-73
2021/07/19 05:34:30;;;;;;;7.97;5.95;;;21.50;89.50;;;;;;5045651;28;20213;-73
2021/07/19 05:36:56;;;;;;;8.57;6.75;;;21.60;89.70;;;;;;5045812;28;20190;-75
2021/07/19 05:39:22;;;;;;;6.75;6.25;;;21.60;89.50;;;;;;5044758;28;20294;-73
2021/07/19 05:42:07;;;;;;;9.20;6.75;;;21.70;89.50;;;;;;5046483;28;20286;-72
2021/07/19 05:44:32;;;;;;;8.85;6.60;;;21.80;89.10;;;;;;5046431;28;20354;-73
2021/07/19 05:47:01;;;;;;;5.75;5.45;;;21.80;88.80;;;;;;5045923;28;20271;-73
2021/07/19 05:49:26;;;;;;;7.78;6.53;;;21.90;88.60;;;;;;5043994;28;20180;-74
2021/07/19 05:51:52;;;;;;;6.85;6.35;;;21.90;87.80;;;;;;5044270;28;20265;-72
2021/07/19 05:54:18;;;;;;;6.93;6.22;;;22.00;87.90;;;;;;5047475;28;20178;-71
2021/07/19 05:56:43;;;;;;;6.85;5.90;;;22.00;88.00;;;;;;5054872;28;20258;-72
2021/07/19 05:59:10;;;;;;;7.22;6.40;;;22.10;88.30;;;;;;5056726;28;20257;-72
2021/07/19 06:01:35;;;;;;;6.97;5.88;;;22.20;88.10;;;;;;5053782;28;20179;-72
2021/07/19 06:04:01;;;;;;;6.82;6.03;;;22.20;87.30;;;;;;5054680;28;20175;-73
2021/07/19 06:06:27;;;;;;;7.35;6.68;;;22.20;87.70;;;;;;5058283;28;20661;-72
2021/07/19 06:08:53;;;;;;;6.22;5.70;;;22.30;87.00;;;;;;5058015;28;20180;-73
2021/07/19 06:11:19;;;;;;;5.97;5.55;;;22.40;86.90;;;;;;5060840;28;20175;-72
2021/07/19 06:13:45;;;;;;;6.22;5.65;;;22.50;86.80;;;;;;5055680;28;20176;-72
2021/07/19 06:16:11;;;;;;;7.07;6.57;;;22.50;86.40;;;;;;5057748;28;20191;-72
2021/07/19 06:18:36;;;;;;;9.32;6.15;;;22.60;86.40;;;;;;5058897;28;20265;-73
2021/07/19 06:21:04;;;;;;;6.93;6.03;;;22.60;86.30;;;;;;5057813;28;20215;-73
2021/07/19 06:32:39;;;;;;;7.18;6.38;;;23.00;85.80;;;;;;5023937;28;20568;-72
2021/07/19 06:35:06;;;;;;;12.32;6.38;;;23.10;85.80;;;;;;5055117;28;20190;-72
2021/07/19 06:57:44;;;;;;;7.65;6.35;;;23.90;84.30;;;;;;5053850;28;21053;-72
2021/07/19 07:00:11;;;;;;;7.75;6.95;;;24.00;84.10;;;;;;5060469;28;20211;-73
2021/07/19 07:02:39;;;;;;;9.65;6.22;;;24.10;84.10;;;;;;5056901;28;20561;-73
2021/07/19 07:05:05;;;;;;;8.82;6.47;;;24.20;83.90;;;;;;5053091;28;20572;-73
2021/07/19 07:07:31;;;;;;;6.97;6.20;;;24.30;83.40;;;;;;5057163;28;20194;-73
2021/07/19 07:09:57;;;;;;;7.15;6.47;;;24.40;83.40;;;;;;5060924;28;20187;-72
2021/07/19 07:12:22;;;;;;;10.32;7.18;;;24.50;83.30;;;;;;5054929;28;20651;-72
2021/07/19 07:14:49;;;;;;;8.60;6.55;;;24.60;81.40;;;;;;5060732;28;20199;-74
2021/07/19 07:17:15;;;;;;;7.80;6.90;;;24.70;81.50;;;;;;5056587;28;20190;-73
2021/07/19 07:19:41;;;;;;;7.53;6.95;;;24.80;81.50;;;;;;5059321;28;20261;-74
2021/07/19 07:22:06;;;;;;;7.53;6.78;;;24.80;81.00;;;;;;5054794;28;20675;-73
2021/07/19 07:24:32;;;;;;;7.28;6.35;;;24.90;81.70;;;;;;5058090;28;20183;-73
2021/07/19 07:26:58;;;;;;;7.38;6.70;;;25.00;81.20;;;;;;5054646;28;20183;-73
2021/07/19 07:29:23;;;;;;;7.00;6.30;;;25.10;80.80;;;;;;5058260;28;20187;-73
2021/07/19 07:31:49;;;;;;;8.68;6.65;;;25.20;81.10;;;;;;5052193;28;20180;-71
2021/07/19 07:34:15;;;;;;;8.70;7.22;;;25.30;80.80;;;;;;5051213;28;20179;-74
2021/07/19 07:36:40;;;;;;;7.00;6.50;;;25.30;79.40;;;;;;5055749;28;20208;-72
2021/07/19 07:39:07;;;;;;;8.65;7.10;;;25.40;80.10;;;;;;5053043;28;20294;-74
2021/07/19 07:41:33;;;;;;;7.68;6.97;;;25.40;79.30;;;;;;5053618;28;20198;-72
2021/07/19 07:43:58;;;;;;;7.35;6.75;;;25.50;79.60;;;;;;5051767;28;20183;-72
2021/07/19 07:46:25;;;;;;;7.57;6.95;;;25.60;80.00;;;;;;5044619;28;20270;-72
2021/07/19 07:48:52;;;;;;;9.85;7.30;;;25.70;80.10;;;;;;5049020;28;20239;-71
2021/07/19 07:51:18;;;;;;;7.82;7.22;;;25.80;80.00;;;;;;5050723;28;20183;-74
2021/07/19 07:53:44;;;;;;;8.55;6.85;;;26.00;79.80;;;;;;5054217;28;20179;-73
2021/07/19 07:56:10;;;;;;;7.78;7.00;;;26.10;79.60;;;;;;5055584;28;20184;-73
2021/07/19 07:58:35;;;;;;;6.55;6.03;;;26.20;78.70;;;;;;5055228;28;20610;-73
2021/07/19 08:01:02;;;;;;;7.35;6.68;;;26.30;78.90;;;;;;5054031;28;21008;-72
2021/07/19 08:03:27;;;;;;;7.40;6.75;;;26.30;78.20;;;;;;5059461;28;20187;-73
2021/07/19 08:05:53;;;;;;;7.47;6.78;;;26.40;78.30;;;;;;5061536;28;20601;-74
2021/07/19 08:08:19;;;;;;;7.15;6.57;;;26.40;77.80;;;;;;5057917;28;20198;-73
2021/07/19 08:10:45;;;;;;;7.40;6.75;;;26.40;77.90;;;;;;5058175;28;20179;-72
2021/07/19 08:13:10;;;;;;;7.78;6.57;;;26.40;76.80;;;;;;5059609;28;20191;-73
2021/07/19 08:15:37;;;;;;;7.80;7.18;;;26.40;77.60;;;;;;5064291;28;20214;-73
2021/07/19 08:18:03;;;;;;;10.20;6.93;;;26.40;77.30;;;;;;5058608;28;20183;-72
2021/07/19 08:20:29;;;;;;;6.47;6.05;;;26.40;76.90;;;;;;5058945;28;20265;-73
2021/07/19 08:22:55;;;;;;;7.07;6.40;;;26.40;77.20;;;;;;5058464;28;20645;-73
2021/07/19 08:25:20;;;;;;;6.35;5.95;;;26.50;76.70;;;;;;5059083;28;20218;-72
2021/07/19 08:27:48;;;;;;;12.23;7.00;;;26.50;76.70;;;;;;5057665;28;20984;-73
2021/07/19 08:30:14;;;;;;;7.28;6.20;;;26.70;76.70;;;;;;5054838;28;20183;-72
2021/07/19 08:32:41;;;;;;;6.38;5.90;;;26.70;74.80;;;;;;5059502;28;20187;-73
2021/07/19 08:35:12;;;;;;;5.97;5.53;;;26.70;75.90;;;;;;5055855;28;20578;-75
2021/07/19 08:37:44;;;;;;;8.05;5.65;;;26.80;75.50;;;;;;5055359;28;20195;-74
2021/07/19 08:40:10;;;;;;;6.80;6.15;;;26.80;74.20;;;;;;5058440;28;20214;-73
2021/07/19 08:42:37;;;;;;;6.47;5.97;;;26.80;75.50;;;;;;5057530;28;20186;-73
2021/07/19 08:45:05;;;;;;;5.97;5.68;;;26.90;75.90;;;;;;5056312;28;20583;-74
2021/07/19 08:47:31;;;;;;;6.68;5.72;;;27.00;74.00;;;;;;5057571;28;20175;-73
2021/07/19 08:49:57;;;;;;;7.13;5.85;;;27.00;73.60;;;;;;5055638;28;20207;-72
2021/07/19 08:52:23;;;;;;;5.40;5.00;;;27.00;73.70;;;;;;5059606;28;20649;-72
2021/07/19 08:54:53;;;;;;;6.22;5.68;;;27.10;75.10;;;;;;5059306;28;20187;-74
2021/07/19 08:57:23;;;;;;;5.95;5.65;;;27.30;73.90;;;;;;5049335;28;20632;-73
2021/07/19 08:59:49;;;;;;;6.35;5.10;;;27.40;74.70;;;;;;5053387;28;20227;-72
2021/07/19 09:02:15;;;;;;;6.43;5.85;;;27.60;74.80;;;;;;5060387;28;20179;-73
2021/07/19 09:04:42;;;;;;;8.25;5.88;;;27.70;72.80;;;;;;5049446;28;20186;-74
2021/07/19 09:07:08;;;;;;;6.80;6.30;;;27.70;72.50;;;;;;5055405;28;20282;-73
2021/07/19 09:09:34;;;;;;;6.78;6.20;;;27.80;72.90;;;;;;5057180;28;20291;-74
2021/07/19 09:12:03;;;;;;;6.38;6.03;;;27.80;72.30;;;;;;5051724;28;20192;-73
2021/07/19 09:14:30;;;;;;;7.03;6.30;;;27.80;71.60;;;;;;5051130;28;20242;-72
2021/07/19 09:16:56;;;;;;;5.85;5.53;;;27.80;72.10;;;;;;5056145;28;20184;-73
2021/07/19 09:19:27;;;;;;;6.20;5.82;;;27.90;72.80;;;;;;5049076;28;20216;-71
2021/07/19 09:21:57;;;;;;;6.72;6.32;;;27.90;72.00;;;;;;5055331;28;20653;-72
2021/07/19 09:24:26;;;;;;;6.97;6.57;;;28.00;73.30;;;;;;5063895;28;20184;-74
2021/07/19 09:26:53;;;;;;;7.00;6.45;;;28.10;72.20;;;;;;5047298;28;20184;-72
2021/07/19 09:29:22;;;;;;;8.13;7.30;;;28.20;72.60;;;;;;5053464;28;20182;-73
2021/07/19 09:31:59;;;;;;;6.40;6.05;;;28.40;72.70;;;;;;5051755;28;20187;-73
2021/07/19 09:34:28;;;;;;;7.32;6.82;;;28.70;73.00;;;;;;5051826;28;20199;-74
2021/07/19 09:37:05;;;;;;;9.50;7.78;;;28.80;72.50;;;;;;5051587;28;20696;-71
2021/07/19 09:39:41;;;;;;;7.97;7.30;;;29.00;71.30;;;;;;5059419;28;20211;-74
2021/07/19 09:42:13;;;;;;;7.93;7.30;;;29.20;70.00;;;;;;5051735;28;20175;-73
2021/07/19 09:44:39;;;;;;;7.80;7.22;;;29.20;70.00;;;;;;5056665;28;20187;-74
2021/07/19 09:47:08;;;;;;;8.30;7.75;;;29.40;71.10;;;;;;5058662;28;20260;-74
2021/07/19 09:49:35;;;;;;;8.95;7.93;;;29.40;69.60;;;;;;5045344;28;20187;-74
2021/07/19 09:52:07;;;;;;;7.88;7.45;;;29.50;70.20;;;;;;5048697;28;20724;-73
2021/07/19 09:54:44;;;;;;;8.38;7.72;;;29.60;69.80;;;;;;5055801;28;20202;-74
2021/07/19 09:57:11;;;;;;;8.55;7.85;;;29.70;69.10;;;;;;5051663;28;20187;-74
2021/07/19 09:59:50;;;;;;;8.77;8.02;;;29.80;70.20;;;;;;5056007;28;20216;-75
2021/07/19 10:02:36;;;;;;;8.98;7.43;;;30.00;68.90;;;;;;5055127;28;20660;-71
2021/07/19 10:05:11;;;;;;;9.07;8.38;;;30.20;68.60;;;;;;5058107;28;20626;-72
2021/07/19 10:07:44;;;;;;;8.68;8.05;;;30.40;67.90;;;;;;5058310;28;20187;-73
2021/07/19 10:10:10;;;;;;;8.57;7.90;;;30.50;67.70;;;;;;5051585;28;20183;-73
2021/07/19 10:12:36;;;;;;;9.18;8.15;;;30.60;68.20;;;;;;5054508;28;20245;-73
2021/07/19 10:15:05;;;;;;;15.82;8.00;;;30.90;67.00;;;;;;5059873;28;20743;-73
2021/07/19 10:17:32;;;;;;;8.52;7.80;;;31.00;67.50;;;;;;5059596;28;20190;-72
2021/07/19 10:19:58;;;;;;;8.25;7.50;;;31.30;67.30;;;;;;5060713;28;20215;-73
2021/07/19 10:22:24;;;;;;;8.70;7.90;;;31.70;66.50;;;;;;5054426;28;20623;-73
2021/07/19 10:24:51;;;;;;;8.70;7.70;;;32.20;65.20;;;;;;5059494;28;20190;-73
2021/07/19 10:27:22;;;;;;;10.60;8.00;;;32.50;64.60;;;;;;5053491;28;20203;-73
2021/07/19 10:29:49;;;;;;;7.70;7.07;;;32.90;64.20;;;;;;5056604;28;20194;-73
2021/07/19 10:32:23;;;;;;;8.73;7.93;;;33.30;64.60;;;;;;5059579;28;20193;-73
2021/07/19 10:34:51;;;;;;;7.90;7.38;;;33.70;62.30;;;;;;5053193;28;20187;-72
2021/07/19 10:37:24;;;;;;;7.68;7.13;;;34.20;62.60;;;;;;5055171;28;20182;-72
2021/07/19 10:39:56;;;;;;;8.60;7.88;;;34.80;60.60;;;;;;5055214;28;20206;-73
2021/07/19 10:42:36;;;;;;;7.60;6.95;;;35.30;59.70;;;;;;5059472;28;20194;-72
2021/07/19 10:45:12;;;;;;;8.82;7.25;;;35.90;58.60;;;;;;5055487;28;20360;-73
2021/07/19 10:47:48;;;;;;;7.90;7.28;;;36.30;57.60;;;;;;5058522;28;20178;-73
2021/07/19 10:50:16;;;;;;;8.32;7.60;;;36.50;57.30;;;;;;5054422;28;20265;-73
2021/07/19 10:52:42;;;;;;;8.85;6.90;;;36.40;57.80;;;;;;5059581;28;20383;-73
2021/07/19 10:55:10;;;;;;;7.00;6.70;;;36.30;57.50;;;;;;5060029;28;20185;-73
2021/07/19 10:57:46;;;;;;;8.68;6.55;;;36.20;58.10;;;;;;5054767;28;20577;-73
2021/07/19 11:00:19;;;;;;;7.70;7.07;;;36.30;58.10;;;;;;5058989;28;20214;-73
2021/07/19 11:02:45;;;;;;;8.38;7.35;;;36.60;57.30;;;;;;5051390;28;20357;-73
2021/07/19 11:05:13;;;;;;;8.70;7.95;;;36.60;56.70;;;;;;5057559;28;20710;-73
2021/07/19 11:07:41;;;;;;;8.25;7.65;;;36.60;57.10;;;;;;5058374;28;20207;-72
2021/07/19 11:10:24;;;;;;;13.57;7.40;;;36.70;57.40;;;;;;5055946;28;20252;-73
2021/07/19 11:12:58;;;;;;;7.30;6.65;;;37.00;56.40;;;;;;5059954;28;20185;-73
2021/07/19 11:15:43;;;;;;;7.55;7.13;;;37.60;56.40;;;;;;5058955;28;20260;-73
2021/07/19 11:18:29;;;;;;;9.30;7.72;;;38.20;54.80;;;;;;5054596;28;20266;-73
2021/07/19 11:20:58;;;;;;;9.63;7.38;;;37.80;53.80;;;;;;5073839;28;20197;-72
2021/07/19 11:23:32;;;;;;;9.27;8.27;;;37.70;56.70;;;;;;5056550;28;20192;-73
2021/07/19 11:26:00;;;;;;;10.18;7.55;;;37.70;55.30;;;;;;5057624;28;20277;-73
2021/07/19 11:28:41;;;;;;;8.02;7.43;;;37.60;55.60;;;;;;5059194;28;20189;-73
2021/07/19 11:31:28;;;;;;;9.18;7.70;;;37.80;56.90;;;;;;5055969;28;20265;-73
2021/07/19 11:34:04;;;;;;;8.07;7.32;;;38.20;54.90;;;;;;5054530;28;20201;-73
2021/07/19 11:36:47;;;;;;;8.88;8.18;;;38.20;55.30;;;;;;5057406;28;20186;-73
2021/07/19 11:39:18;;;;;;;9.45;8.38;;;37.90;54.20;;;;;;5056877;28;20296;-74
2021/07/19 11:41:43;;;;;;;9.35;8.43;;;37.30;54.70;;;;;;5064235;28;20183;-74
2021/07/19 11:44:16;;;;;;;9.15;8.25;;;36.70;56.20;;;;;;5060598;28;20188;-74
2021/07/19 11:46:42;;;;;;;8.93;8.23;;;36.60;57.40;;;;;;5060636;28;20676;-74
2021/07/19 11:49:12;;;;;;;10.10;7.85;;;36.80;57.50;;;;;;5063088;28;20182;-74
2021/07/19 11:51:45;;;;;;;15.18;8.38;;;36.90;56.50;;;;;;5063156;28;20722;-74
2021/07/19 11:54:13;;;;;;;9.60;8.63;;;36.70;55.60;;;;;;5063251;28;20201;-74
2021/07/19 11:56:44;;;;;;;8.60;7.95;;;36.40;57.20;;;;;;5060440;28;20356;-73
2021/07/19 11:59:10;;;;;;;8.27;7.68;;;36.60;57.40;;;;;;5059273;28;20211;-73
2021/07/19 12:01:36;;;;;;;9.00;8.30;;;36.80;56.40;;;;;;5058521;28;20648;-73
2021/07/19 12:04:06;;;;;;;13.25;8.75;;;37.00;56.20;;;;;;5060624;28;20189;-73
2021/07/19 12:06:33;;;;;;;9.60;8.48;;;36.90;55.60;;;;;;5057831;28;20698;-73
2021/07/19 12:09:01;;;;;;;9.07;8.30;;;36.60;56.20;;;;;;5058396;28;20186;-74
2021/07/19 12:11:28;;;;;;;9.27;8.68;;;36.10;56.40;;;;;;5059314;28;20190;-73
2021/07/19 12:13:59;;;;;;;8.27;7.57;;;35.40;58.40;;;;;;5061424;28;20187;-73
2021/07/19 12:16:41;;;;;;;8.85;8.23;;;35.30;59.60;;;;;;5055778;28;20230;-74
2021/07/19 12:19:08;;;;;;;8.75;8.15;;;35.70;58.10;;;;;;5056833;28;20213;-75
2021/07/19 12:21:45;;;;;;;9.45;8.57;;;36.20;56.30;;;;;;5060550;28;20186;-75
2021/07/19 12:24:13;;;;;;;9.60;8.77;;;36.60;57.20;;;;;;5058883;28;20245;-74
2021/07/19 12:26:50;;;;;;;8.32;7.57;;;36.90;55.40;;;;;;5058077;28;20207;-74
2021/07/19 12:29:25;;;;;;;9.30;8.48;;;36.50;55.10;;;;;;5056792;28;20189;-73
2021/07/19 12:31:53;;;;;;;8.43;7.82;;;36.20;56.40;;;;;;5060104;28;20685;-74
2021/07/19 12:34:20;;;;;;;8.02;7.40;;;36.30;56.80;;;;;;5061919;28;20182;-74
2021/07/19 12:36:47;;;;;;;8.60;7.93;;;36.40;56.70;;;;;;5063597;28;20174;-74
2021/07/19 12:39:16;;;;;;;9.15;7.88;;;36.70;56.50;;;;;;5058456;28;20217;-74
2021/07/19 12:41:42;;;;;;;8.60;8.00;;;36.60;56.20;;;;;;5059748;28;20700;-74
2021/07/19 12:44:10;;;;;;;8.57;7.78;;;36.20;56.70;;;;;;5057132;28;20236;-75
2021/07/19 12:46:41;;;;;;;9.40;7.57;;;35.60;58.10;;;;;;5057409;28;20198;-75
2021/07/19 12:49:07;;;;;;;7.95;7.43;;;35.20;59.00;;;;;;5058424;28;20588;-73
2021/07/19 12:51:35;;;;;;;8.25;7.38;;;35.20;58.40;;;;;;5052843;28;20647;-74
2021/07/19 12:54:08;;;;;;;7.85;7.35;;;35.40;58.60;;;;;;5054906;28;20625;-74
2021/07/19 12:56:36;;;;;;;8.18;7.50;;;35.50;57.80;;;;;;5060961;28;20228;-73
2021/07/19 12:59:09;;;;;;;7.82;7.43;;;35.10;58.60;;;;;;5058602;28;20935;-73
2021/07/19 13:01:37;;;;;;;9.07;8.18;;;34.80;58.70;;;;;;5050943;28;20183;-73
2021/07/19 13:04:11;;;;;;;8.73;8.00;;;34.30;57.90;;;;;;5057644;28;20604;-73
2021/07/19 13:06:38;;;;;;;10.70;8.55;;;33.80;59.50;;;;;;5052601;28;20190;-73
2021/07/19 13:09:25;;;;;;;8.50;7.68;;;34.10;59.50;;;;;;5054674;28;20183;-74
2021/07/19 13:12:09;;;;;;;8.98;7.95;;;34.40;58.20;;;;;;5055041;28;20187;-73
2021/07/19 13:14:42;;;;;;;9.63;7.72;;;34.30;58.40;;;;;;5050625;28;20199;-73
2021/07/19 13:17:32;;;;;;;7.72;7.25;;;33.90;58.70;;;;;;5055260;28;20183;-73
2021/07/19 13:20:09;;;;;;;8.75;7.35;;;34.10;59.30;;;;;;5052734;28;20646;-73
2021/07/19 13:22:40;;;;;;;10.85;7.55;;;34.60;58.70;;;;;;5053019;28;20179;-74